Time;durP1;ratioP1;P1;durP2;ratioP2;P2;SDS_P1;SDS_P2;PMS_P1;PMS_P2;Temp;Humidity;BMP_temperature;BMP_pressure;BME280_temperature;BME280_humidity;BME280_pressure;Samples;Min_cycle;Max_cycle;Signal;HPM_P1;HPM_P2
2021/10/19 00:00:47;;;;;;;11.33;9.00;;;16.70;99.90;;;;;;6139120;23;20142;-92
2021/10/19 00:03:16;;;;;;;15.37;9.13;;;16.70;99.90;;;;;;6137350;23;20161;-92
2021/10/19 00:05:45;;;;;;;10.27;8.60;;;16.70;99.90;;;;;;6142633;23;20234;-91
2021/10/19 00:08:10;;;;;;;11.13;8.40;;;16.60;99.90;;;;;;6127352;23;20150;-92
2021/10/19 00:10:36;;;;;;;16.20;8.47;;;16.60;99.90;;;;;;6102823;23;20156;-92
2021/10/19 00:13:08;;;;;;;11.93;8.00;;;16.60;99.90;;;;;;6126806;23;20184;-92
2021/10/19 00:15:41;;;;;;;10.17;8.30;;;16.70;99.90;;;;;;6126695;23;20241;-90
2021/10/19 00:29:08;;;;;;;11.83;6.87;;;16.60;99.90;;;;;;6092891;23;20187;-92
2021/10/19 00:32:10;;;;;;;8.07;6.40;;;16.40;99.90;;;;;;6157316;23;20171;-93
2021/10/19 00:38:04;;;;;;;7.63;6.20;;;16.40;99.90;;;;;;6183845;23;20160;-93
2021/10/19 00:40:56;;;;;;;7.73;6.10;;;16.40;99.90;;;;;;6159635;23;20152;-92
2021/10/19 00:43:44;;;;;;;7.97;5.73;;;16.30;99.90;;;;;;6158589;23;20160;-93
2021/10/19 00:47:00;;;;;;;;;;;;;;;;;;;;;
2021/10/19 00:49:47;;;;;;;7.20;5.70;;;16.40;99.90;;;;;;6184104;23;20648;-93
2021/10/19 00:52:24;;;;;;;6.93;5.40;;;16.40;99.90;;;;;;6159185;23;20268;-93
2021/10/19 00:55:13;;;;;;;6.80;5.33;;;16.40;99.90;;;;;;6159700;23;20200;-92
2021/10/19 00:58:29;;;;;;;6.63;5.80;;;16.40;99.90;;;;;;6160088;23;20167;-92
2021/10/19 01:01:20;;;;;;;6.67;5.47;;;16.50;99.90;;;;;;6156254;23;20170;-90
2021/10/19 01:04:00;;;;;;;6.50;5.07;;;16.50;99.90;;;;;;6160131;23;20669;-92
2021/10/19 01:06:29;;;;;;;5.93;4.40;;;16.40;99.90;;;;;;6160373;23;20187;-96
2021/10/19 01:09:13;;;;;;;6.23;4.50;;;16.40;99.90;;;;;;6159685;23;20238;-90
2021/10/19 01:14:53;;;;;;;6.43;4.43;;;16.40;99.90;;;;;;6185947;23;20187;-93
2021/10/19 01:18:07;;;;;;;4.63;3.70;;;16.40;99.90;;;;;;6159995;23;20153;-93
2021/10/19 01:21:05;;;;;;;;;;;;;;;;;;;;;
2021/10/19 01:27:54;;;;;;;5.03;3.87;;;16.40;99.90;;;;;;6181828;23;20158;-93
2021/10/19 01:34:25;;;;;;;;;;;;;;;;;;;;;
2021/10/19 01:37:21;;;;;;;;;;;;;;;;;;;;;
2021/10/19 01:40:20;;;;;;;5.00;3.37;;;16.40;99.90;;;;;;6185398;23;20307;-93
2021/10/19 01:43:03;;;;;;;;;;;;;;;;;;;;;
2021/10/19 01:45:51;;;;;;;3.97;3.30;;;16.60;99.90;;;;;;6163670;23;20248;-92
2021/10/19 01:48:50;;;;;;;4.60;3.80;;;16.50;99.90;;;;;;6160625;23;20595;-92
2021/10/19 01:51:37;;;;;;;5.10;3.37;;;16.40;99.90;;;;;;6163259;23;20154;-92
2021/10/19 01:54:18;;;;;;;4.80;3.50;;;16.40;99.90;;;;;;6159340;23;20191;-93
2021/10/19 01:57:25;;;;;;;;;;;;;;;;;;;;;
2021/10/19 02:00:25;;;;;;;5.07;3.93;;;16.30;99.90;;;;;;6184344;23;20236;-92
2021/10/19 02:02:58;;;;;;;3.60;3.30;;;16.40;99.90;;;;;;6060710;23;20163;-92
2021/10/19 02:05:50;;;;;;;4.27;3.43;;;16.50;99.90;;;;;;6159537;23;20178;-92
2021/10/19 02:08:39;;;;;;;4.27;3.13;;;16.50;99.90;;;;;;6157199;23;20485;-93
2021/10/19 02:12:06;;;;;;;5.17;3.57;;;16.50;99.90;;;;;;6160185;23;20190;-92
2021/10/19 02:14:54;;;;;;;4.00;3.17;;;16.50;99.90;;;;;;6157463;23;20222;-92
2021/10/19 02:17:50;;;;;;;5.00;3.07;;;16.50;99.90;;;;;;6158799;23;20149;-92
2021/10/19 02:24:26;;;;;;;5.13;3.40;;;16.50;99.90;;;;;;6173884;23;20492;-93
2021/10/19 02:27:22;;;;;;;4.37;3.00;;;16.60;99.90;;;;;;6182214;23;20175;-92
2021/10/19 02:33:41;;;;;;;4.03;3.27;;;16.60;99.90;;;;;;6140333;23;20188;-92
2021/10/19 02:36:21;;;;;;;5.00;3.73;;;16.50;99.90;;;;;;6160468;23;20188;-93
2021/10/19 02:39:23;;;;;;;3.77;3.33;;;16.60;99.90;;;;;;6143858;23;20159;-93
2021/10/19 02:42:05;;;;;;;4.00;3.60;;;16.50;99.90;;;;;;6114543;23;20241;-93
2021/10/19 02:45:03;;;;;;;6.50;3.90;;;16.50;99.90;;;;;;6158981;23;20162;-92
2021/10/19 02:48:38;;;;;;;;;;;;;;;;;;;;;
2021/10/19 03:29:26;;;;;;;;;;;;;;;;;;;;;
2021/10/19 03:36:41;;;;;;;;;;;;;;;;;;;;;
2021/10/19 03:39:57;;;;;;;7.70;6.90;;;16.60;99.90;;;;;;6058779;23;20163;-92
2021/10/19 03:43:01;;;;;;;6.90;6.10;;;16.70;99.90;;;;;;6150967;23;20150;-93
2021/10/19 03:46:15;;;;;;;7.83;6.30;;;16.70;99.90;;;;;;6186788;23;20144;-92
2021/10/19 03:53:00;;;;;;;6.00;5.03;;;16.70;99.90;;;;;;6153290;23;20149;-91
2021/10/19 03:56:00;;;;;;;6.47;5.57;;;16.80;99.90;;;;;;6131888;23;20213;-92
2021/10/19 03:58:41;;;;;;;6.63;4.97;;;16.70;99.90;;;;;;6186858;23;20144;-91
2021/10/19 04:01:44;;;;;;;5.67;5.17;;;16.60;99.90;;;;;;6179014;23;20144;-93
2021/10/19 04:07:40;;;;;;;5.17;4.67;;;16.70;99.90;;;;;;6190155;22;20178;-93
2021/10/19 04:11:39;;;;;;;6.40;5.00;;;16.70;99.90;;;;;;6124701;23;20179;-92
2021/10/19 04:21:12;;;;;;;;;;;;;;;;;;;;;
2021/10/19 05:32:08;;;;;;;;;;;;;;;;;;;;;
2021/10/19 05:37:59;;;;;;;8.67;7.20;;;16.80;99.90;;;;;;6038286;23;20217;-90
2021/10/19 05:44:21;;;;;;;10.23;8.40;;;16.70;99.90;;;;;;6067480;23;20169;-91
2021/10/19 06:00:46;;;;;;;11.97;8.70;;;16.90;99.90;;;;;;6067289;23;20163;-93
2021/10/19 06:06:35;;;;;;;11.63;8.53;;;16.60;99.90;;;;;;6065732;23;20302;-88
2021/10/19 06:09:33;;;;;;;10.33;8.10;;;16.60;99.90;;;;;;6066060;23;20160;-91
2021/10/19 06:12:00;;;;;;;10.83;8.50;;;16.60;99.90;;;;;;5954878;24;20534;-89
2021/10/19 06:14:26;;;;;;;9.00;7.57;;;16.60;99.90;;;;;;5976289;23;20167;-93
2021/10/19 06:16:55;;;;;;;11.13;8.83;;;16.60;99.90;;;;;;6082189;23;20197;-90
2021/10/19 06:19:21;;;;;;;10.13;7.93;;;16.70;99.90;;;;;;6100937;23;20285;-93
2021/10/19 06:21:52;;;;;;;10.37;7.83;;;16.80;99.90;;;;;;6101228;23;20260;-92
2021/10/19 06:24:18;;;;;;;9.73;7.90;;;16.80;99.90;;;;;;6101028;23;20160;-92
2021/10/19 06:26:50;;;;;;;10.43;7.40;;;16.70;99.90;;;;;;6100723;23;20223;-92
2021/10/19 06:29:18;;;;;;;9.90;7.40;;;16.70;99.90;;;;;;6101255;23;20150;-90
2021/10/19 06:31:46;;;;;;;9.63;6.97;;;16.70;99.90;;;;;;6100870;23;20152;-89
2021/10/19 06:34:14;;;;;;;11.07;6.83;;;16.70;99.90;;;;;;6101399;23;20156;-89
2021/10/19 06:36:43;;;;;;;8.80;6.70;;;16.80;99.90;;;;;;6101650;23;20212;-90
2021/10/19 06:39:12;;;;;;;8.60;5.73;;;16.80;99.90;;;;;;6101158;23;20227;-88
2021/10/19 06:41:48;;;;;;;9.80;5.90;;;16.90;99.90;;;;;;6103972;23;20179;-90
2021/10/19 06:44:17;;;;;;;9.23;6.63;;;16.80;99.90;;;;;;6155020;23;20182;-92
2021/10/19 06:46:45;;;;;;;7.47;6.47;;;16.90;99.90;;;;;;6154476;23;20150;-92
2021/10/19 06:49:14;;;;;;;10.23;7.13;;;16.90;99.90;;;;;;6155281;23;20162;-89
2021/10/19 06:51:41;;;;;;;9.07;7.20;;;16.90;99.90;;;;;;6154976;23;20617;-90
2021/10/19 06:54:10;;;;;;;11.37;7.90;;;16.90;99.90;;;;;;6155024;23;20615;-89
2021/10/19 06:56:36;;;;;;;9.67;8.30;;;16.90;99.90;;;;;;6156774;23;20195;-89
2021/10/19 06:59:07;;;;;;;10.87;7.43;;;16.90;99.90;;;;;;6157121;23;20156;-87
2021/10/19 07:01:36;;;;;;;10.77;7.63;;;17.00;99.90;;;;;;6156815;23;20152;-88
2021/10/19 07:04:03;;;;;;;11.93;8.23;;;16.90;99.90;;;;;;6156691;23;20184;-88
2021/10/19 07:06:31;;;;;;;12.33;8.70;;;16.80;99.90;;;;;;6156341;23;20157;-89
2021/10/19 07:09:00;;;;;;;12.20;8.70;;;16.80;99.90;;;;;;6156303;23;20179;-89
2021/10/19 07:11:29;;;;;;;13.63;10.07;;;16.70;99.90;;;;;;6156882;23;20577;-88
2021/10/19 07:13:58;;;;;;;15.23;9.93;;;16.80;99.90;;;;;;6129744;23;20149;-89
2021/10/19 07:16:26;;;;;;;16.17;10.40;;;16.80;99.90;;;;;;6156389;23;20706;-88
2021/10/19 07:18:52;;;;;;;20.70;11.53;;;16.90;99.90;;;;;;6155779;23;20161;-88
2021/10/19 07:21:17;;;;;;;17.70;11.67;;;16.90;99.90;;;;;;6154913;23;20176;-89
2021/10/19 07:23:43;;;;;;;15.67;11.30;;;16.90;99.90;;;;;;6156129;23;20153;-88
2021/10/19 07:26:09;;;;;;;20.37;12.90;;;16.90;99.90;;;;;;6155987;23;20245;-88
2021/10/19 07:28:34;;;;;;;20.37;12.57;;;16.90;99.90;;;;;;6155871;23;20574;-89
2021/10/19 07:31:00;;;;;;;21.43;13.80;;;17.00;99.90;;;;;;6155433;23;20159;-88
2021/10/19 07:33:25;;;;;;;22.33;14.70;;;17.00;99.90;;;;;;6156466;23;20158;-88
2021/10/19 07:35:51;;;;;;;26.10;15.50;;;17.00;99.90;;;;;;6155562;23;20259;-89
2021/10/19 07:38:17;;;;;;;25.03;15.27;;;17.10;99.90;;;;;;6154937;23;20156;-87
2021/10/19 07:40:43;;;;;;;22.17;16.03;;;17.10;99.90;;;;;;6155614;23;20167;-87
2021/10/19 07:43:08;;;;;;;28.73;16.40;;;17.20;99.90;;;;;;6155977;23;20587;-89
2021/10/19 07:45:34;;;;;;;24.17;16.77;;;17.20;99.90;;;;;;6157135;23;20160;-91
2021/10/19 07:48:03;;;;;;;27.03;16.87;;;17.20;99.90;;;;;;6156012;23;20214;-91
2021/10/19 07:50:30;;;;;;;27.43;17.80;;;17.30;99.90;;;;;;6156425;23;20152;-91
2021/10/19 07:52:58;;;;;;;34.60;17.27;;;17.30;99.90;;;;;;6131464;23;20600;-92
2021/10/19 07:55:26;;;;;;;25.80;17.77;;;17.20;99.90;;;;;;6131728;23;20175;-90
2021/10/19 07:57:53;;;;;;;31.40;18.80;;;17.20;99.90;;;;;;6131964;23;20186;-91
2021/10/19 08:00:27;;;;;;;36.10;20.13;;;17.20;99.90;;;;;;6131916;23;20156;-91
2021/10/19 08:02:54;;;;;;;30.27;19.57;;;17.20;99.90;;;;;;6133484;23;20484;-92
2021/10/19 08:05:20;;;;;;;32.73;20.50;;;17.20;99.90;;;;;;6131588;23;20157;-91
2021/10/19 08:07:49;;;;;;;35.77;21.07;;;17.20;99.90;;;;;;6131460;23;20235;-90
2021/10/19 08:10:21;;;;;;;42.07;21.77;;;17.30;99.90;;;;;;6131778;23;20162;-90
2021/10/19 08:12:47;;;;;;;37.97;21.90;;;17.30;99.90;;;;;;6131628;23;20153;-89
2021/10/19 08:15:14;;;;;;;39.73;22.07;;;17.30;99.90;;;;;;6131574;23;20191;-91
2021/10/19 08:17:40;;;;;;;33.47;21.73;;;17.40;99.90;;;;;;6131646;23;20162;-91
2021/10/19 08:20:08;;;;;;;34.57;21.40;;;17.40;99.90;;;;;;6155512;23;20160;-90
2021/10/19 08:22:35;;;;;;;42.20;22.00;;;17.30;99.90;;;;;;6131252;23;20186;-91
2021/10/19 08:25:03;;;;;;;35.60;22.13;;;17.30;99.90;;;;;;6132006;23;20152;-91
2021/10/19 08:27:29;;;;;;;31.70;19.63;;;17.30;99.90;;;;;;6155859;23;20153;-91
2021/10/19 08:29:58;;;;;;;36.60;21.43;;;17.40;99.90;;;;;;6156015;23;20151;-91
2021/10/19 08:32:25;;;;;;;33.43;20.47;;;17.50;99.90;;;;;;6155873;23;20234;-91
2021/10/19 08:34:50;;;;;;;37.90;22.90;;;17.60;99.90;;;;;;6155719;23;20231;-92
2021/10/19 08:37:16;;;;;;;28.00;20.13;;;17.60;99.90;;;;;;6155123;23;20151;-92
2021/10/19 08:39:42;;;;;;;36.87;22.03;;;17.60;99.90;;;;;;6156148;23;20172;-92
2021/10/19 08:42:08;;;;;;;33.23;21.03;;;17.60;99.90;;;;;;6155895;23;20525;-91
2021/10/19 08:44:34;;;;;;;32.33;20.97;;;17.60;99.90;;;;;;6156423;23;20208;-92
2021/10/19 08:47:01;;;;;;;31.47;20.70;;;17.60;99.90;;;;;;6132061;23;20203;-91
2021/10/19 08:49:27;;;;;;;28.73;20.13;;;17.70;99.90;;;;;;6131317;23;20697;-90
2021/10/19 08:51:53;;;;;;;30.90;19.97;;;17.80;99.90;;;;;;6131118;23;20241;-90
2021/10/19 08:54:19;;;;;;;31.77;19.60;;;17.70;99.90;;;;;;6156384;23;20579;-92
2021/10/19 08:56:44;;;;;;;38.23;20.17;;;17.70;99.90;;;;;;6155511;23;20199;-90
2021/10/19 08:59:12;;;;;;;30.90;19.77;;;17.80;99.90;;;;;;6156118;23;20147;-92
2021/10/19 09:01:41;;;;;;;27.47;17.37;;;17.90;99.90;;;;;;6130925;23;20255;-90
2021/10/19 09:04:09;;;;;;;29.40;18.70;;;17.90;99.90;;;;;;6130927;23;20594;-92
2021/10/19 09:06:38;;;;;;;28.43;17.80;;;17.90;99.90;;;;;;6131204;23;20152;-90
2021/10/19 09:09:07;;;;;;;25.17;17.27;;;18.00;99.90;;;;;;6107106;23;20172;-90
2021/10/19 09:11:40;;;;;;;26.03;16.17;;;17.90;99.90;;;;;;6131112;23;20211;-90
2021/10/19 09:14:05;;;;;;;25.37;16.53;;;17.90;99.90;;;;;;6130757;23;20221;-90
2021/10/19 09:16:40;;;;;;;28.43;16.67;;;17.90;99.90;;;;;;6155509;23;20640;-90
2021/10/19 09:19:09;;;;;;;23.47;15.73;;;17.90;99.90;;;;;;6129794;23;20459;-91
2021/10/19 09:21:38;;;;;;;20.73;14.33;;;18.00;99.90;;;;;;6131359;23;20346;-91
2021/10/19 09:24:26;;;;;;;21.93;13.93;;;18.10;99.90;;;;;;6130766;23;20160;-90
2021/10/19 09:27:06;;;;;;;22.43;14.17;;;18.20;99.90;;;;;;6131042;23;20318;-90
2021/10/19 09:29:50;;;;;;;17.40;13.23;;;18.30;99.90;;;;;;6131008;23;20160;-90
2021/10/19 09:32:18;;;;;;;20.33;12.20;;;18.30;99.90;;;;;;6130747;23;20152;-90
2021/10/19 09:34:45;;;;;;;20.00;12.33;;;18.30;99.90;;;;;;6130373;23;20153;-91
2021/10/19 09:37:24;;;;;;;20.57;11.97;;;18.30;99.90;;;;;;6130986;23;20167;-91
2021/10/19 09:39:51;;;;;;;16.73;11.47;;;18.30;99.90;;;;;;6130829;23;20149;-91
2021/10/19 09:42:35;;;;;;;19.17;11.67;;;18.30;99.90;;;;;;6130036;23;20176;-92
2021/10/19 09:45:14;;;;;;;17.23;10.60;;;18.40;99.90;;;;;;6155474;23;20163;-93
2021/10/19 09:47:52;;;;;;;16.57;11.07;;;18.50;99.90;;;;;;6130814;23;20141;-91
2021/10/19 09:50:34;;;;;;;16.80;10.60;;;18.70;99.90;;;;;;6130976;23;20149;-91
2021/10/19 09:53:14;;;;;;;14.53;9.73;;;18.80;99.90;;;;;;6130651;23;20161;-90
2021/10/19 09:55:58;;;;;;;14.17;9.40;;;18.90;99.90;;;;;;6131039;23;20216;-92
2021/10/19 09:58:55;;;;;;;15.73;9.73;;;18.90;99.90;;;;;;6131164;23;20224;-93
2021/10/19 10:01:29;;;;;;;13.70;10.07;;;18.90;99.90;;;;;;6155417;23;20200;-91
2021/10/19 10:04:02;;;;;;;17.80;9.10;;;18.90;99.90;;;;;;6156169;23;20152;-91
2021/10/19 10:06:34;;;;;;;11.93;8.47;;;18.80;99.90;;;;;;6132036;23;20570;-90
2021/10/19 10:09:10;;;;;;;13.00;9.30;;;18.90;99.90;;;;;;6131343;23;20152;-92
2021/10/19 10:11:42;;;;;;;10.80;7.87;;;18.70;99.90;;;;;;6130600;23;20153;-90
2021/10/19 10:14:08;;;;;;;10.20;7.97;;;18.70;99.90;;;;;;6131450;23;20196;-90
2021/10/19 10:16:49;;;;;;;11.33;7.53;;;18.60;99.90;;;;;;6161035;23;20180;-90
2021/10/19 10:19:18;;;;;;;9.50;7.90;;;18.60;99.90;;;;;;6135489;23;20145;-90
2021/10/19 10:21:52;;;;;;;10.90;8.03;;;18.60;99.90;;;;;;6134310;23;20192;-90
2021/10/19 10:24:37;;;;;;;11.47;8.23;;;18.60;99.90;;;;;;6135385;23;20228;-90
2021/10/19 10:27:09;;;;;;;10.53;7.77;;;18.60;99.90;;;;;;6136972;23;20161;-90
2021/10/19 10:29:38;;;;;;;9.67;7.77;;;18.60;99.90;;;;;;6133078;23;20145;-91
2021/10/19 10:32:07;;;;;;;10.53;7.80;;;18.70;99.90;;;;;;6157837;23;20156;-91
2021/10/19 10:34:33;;;;;;;9.53;7.77;;;18.80;99.90;;;;;;6133331;23;20149;-89
2021/10/19 10:37:13;;;;;;;10.90;8.17;;;18.70;99.90;;;;;;6132705;23;20173;-90
2021/10/19 10:40:28;;;;;;;10.93;7.80;;;18.70;99.90;;;;;;6133231;23;20223;-92
2021/10/19 10:42:55;;;;;;;11.57;8.07;;;18.70;99.90;;;;;;6030744;23;20175;-83
2021/10/19 10:45:34;;;;;;;11.80;7.90;;;18.70;99.90;;;;;;6131412;23;20598;-83
2021/10/19 10:48:03;;;;;;;8.70;6.97;;;18.80;99.90;;;;;;6156220;23;20500;-83
2021/10/19 10:50:29;;;;;;;10.27;7.87;;;18.90;99.90;;;;;;6131699;23;20149;-83
2021/10/19 10:53:16;;;;;;;11.00;7.63;;;18.90;99.90;;;;;;6131915;23;20156;-83
2021/10/19 10:55:48;;;;;;;13.03;8.00;;;19.00;99.90;;;;;;6131464;23;20177;-82
2021/10/19 10:58:37;;;;;;;12.13;7.30;;;19.10;99.90;;;;;;6131795;23;20583;-83
2021/10/19 11:01:15;;;;;;;13.77;7.23;;;19.10;99.90;;;;;;6131640;23;20605;-83
2021/10/19 11:03:52;;;;;;;11.90;7.70;;;19.10;99.90;;;;;;6131434;23;20160;-84
2021/10/19 11:06:23;;;;;;;9.63;7.57;;;19.20;99.90;;;;;;6131577;23;20156;-84
2021/10/19 11:08:57;;;;;;;9.90;7.37;;;19.30;99.90;;;;;;6131793;23;20155;-83
2021/10/19 11:11:24;;;;;;;8.90;7.37;;;19.30;99.90;;;;;;6131520;23;20149;-85
2021/10/19 11:13:59;;;;;;;10.93;7.70;;;19.40;99.90;;;;;;6131298;23;20642;-82
2021/10/19 11:16:30;;;;;;;10.23;7.10;;;19.40;99.90;;;;;;6131177;23;20215;-82
2021/10/19 11:18:56;;;;;;;10.93;7.67;;;19.50;99.90;;;;;;6131207;23;20146;-82
2021/10/19 11:21:22;;;;;;;10.67;7.10;;;19.50;99.90;;;;;;6131056;23;20192;-82
2021/10/19 11:23:48;;;;;;;13.60;7.37;;;19.50;99.90;;;;;;6155966;23;20196;-82
2021/10/19 11:26:14;;;;;;;9.10;6.90;;;19.50;99.90;;;;;;6155788;23;20196;-82
2021/10/19 11:28:43;;;;;;;12.30;7.73;;;19.50;99.90;;;;;;6130990;23;20580;-81
2021/10/19 11:31:09;;;;;;;9.53;7.37;;;19.60;99.90;;;;;;6130871;23;20237;-81
2021/10/19 11:33:45;;;;;;;11.37;7.87;;;19.50;99.90;;;;;;6131278;23;20161;-82
2021/10/19 11:36:12;;;;;;;10.20;7.10;;;19.50;99.90;;;;;;6157029;23;20239;-82
2021/10/19 11:38:46;;;;;;;11.53;8.50;;;19.50;99.90;;;;;;6131168;23;20146;-83
2021/10/19 11:41:15;;;;;;;10.13;7.60;;;19.50;99.90;;;;;;6130678;23;20179;-82
2021/10/19 11:43:43;;;;;;;10.53;7.70;;;19.50;99.90;;;;;;6130594;23;20171;-82
2021/10/19 11:46:11;;;;;;;13.33;7.93;;;19.50;99.90;;;;;;6131346;23;20158;-83
2021/10/19 11:48:37;;;;;;;11.53;7.53;;;19.60;99.90;;;;;;6130981;23;20146;-82
2021/10/19 11:51:07;;;;;;;10.20;7.30;;;19.70;99.90;;;;;;6131347;23;20161;-84
2021/10/19 11:53:35;;;;;;;9.97;7.60;;;19.60;99.90;;;;;;6130797;23;20236;-82
2021/10/19 11:56:02;;;;;;;9.63;7.17;;;19.70;99.90;;;;;;6131183;23;20239;-82
2021/10/19 11:58:28;;;;;;;9.40;7.10;;;19.70;99.90;;;;;;6130673;23;20481;-83
2021/10/19 12:00:53;;;;;;;9.40;6.97;;;19.70;99.90;;;;;;6155758;23;20172;-82
2021/10/19 12:03:19;;;;;;;9.93;7.53;;;19.70;99.90;;;;;;6155112;23;20149;-81
2021/10/19 12:05:45;;;;;;;11.30;7.23;;;19.70;99.90;;;;;;6155633;23;20149;-82
2021/10/19 12:08:11;;;;;;;10.53;7.93;;;19.60;99.90;;;;;;6155709;23;20149;-82
2021/10/19 12:10:37;;;;;;;11.67;7.90;;;19.70;99.90;;;;;;6155668;23;20146;-83
2021/10/19 12:13:05;;;;;;;12.30;8.30;;;19.60;99.90;;;;;;6155197;23;20229;-84
2021/10/19 12:15:33;;;;;;;14.73;7.57;;;19.60;99.90;;;;;;6130930;23;20670;-84
2021/10/19 12:18:06;;;;;;;13.77;8.00;;;19.60;99.90;;;;;;6131062;23;20302;-82
2021/10/19 12:20:36;;;;;;;10.70;8.17;;;19.60;99.90;;;;;;6130694;23;20599;-82
2021/10/19 12:23:05;;;;;;;10.80;8.13;;;19.60;99.90;;;;;;6130762;23;20161;-82
2021/10/19 12:25:52;;;;;;;10.43;7.93;;;19.60;99.90;;;;;;6131131;23;20145;-82
2021/10/19 12:28:27;;;;;;;13.63;8.27;;;19.60;99.90;;;;;;6130655;23;20188;-82
2021/10/19 12:30:54;;;;;;;11.73;8.20;;;19.70;99.90;;;;;;6130812;23;20155;-82
2021/10/19 12:33:23;;;;;;;12.50;7.70;;;19.70;99.90;;;;;;6130706;23;20142;-83
2021/10/19 12:35:57;;;;;;;10.90;8.03;;;19.70;99.90;;;;;;6131005;23;20185;-82
2021/10/19 12:38:44;;;;;;;13.17;8.73;;;19.70;99.90;;;;;;6155454;23;20148;-82
2021/10/19 12:41:16;;;;;;;11.90;8.33;;;19.60;99.90;;;;;;6155142;23;20532;-82
2021/10/19 12:43:47;;;;;;;12.80;9.00;;;19.50;99.90;;;;;;6130694;23;20177;-82
2021/10/19 12:46:13;;;;;;;13.87;8.30;;;19.50;99.90;;;;;;6130434;23;20153;-83
2021/10/19 12:48:40;;;;;;;13.40;9.03;;;19.50;99.90;;;;;;6130623;23;20184;-84
2021/10/19 12:51:18;;;;;;;13.23;8.97;;;19.60;99.90;;;;;;6130423;23;20249;-82
2021/10/19 12:53:49;;;;;;;14.10;10.00;;;19.60;99.90;;;;;;6129937;23;20184;-82
2021/10/19 12:56:16;;;;;;;15.07;10.43;;;19.60;99.90;;;;;;6130632;23;20188;-82
2021/10/19 12:58:43;;;;;;;17.73;11.83;;;19.50;99.90;;;;;;6156553;23;20169;-82
2021/10/19 13:01:09;;;;;;;17.70;12.27;;;19.30;99.90;;;;;;6130416;23;20153;-84
2021/10/19 13:03:36;;;;;;;19.23;12.63;;;19.10;99.90;;;;;;6130243;23;20192;-83
2021/10/19 13:06:07;;;;;;;18.57;12.37;;;19.10;99.90;;;;;;6130761;23;20149;-86
2021/10/19 13:08:33;;;;;;;17.77;13.10;;;19.30;99.90;;;;;;6130646;23;20193;-85
2021/10/19 13:10:59;;;;;;;19.73;12.67;;;19.10;99.90;;;;;;6155358;23;20157;-86
2021/10/19 13:13:25;;;;;;;17.60;13.90;;;19.10;99.90;;;;;;6130277;23;20153;-86
2021/10/19 13:15:53;;;;;;;19.67;14.60;;;19.00;99.90;;;;;;6130577;23;20192;-85
2021/10/19 13:18:19;;;;;;;21.73;14.47;;;18.90;99.90;;;;;;6130501;23;20203;-84
2021/10/19 13:20:45;;;;;;;22.50;14.20;;;18.90;99.90;;;;;;6131016;23;20157;-83
2021/10/19 13:23:10;;;;;;;20.87;14.83;;;19.00;99.90;;;;;;6130823;23;20153;-83
2021/10/19 13:25:37;;;;;;;20.03;13.60;;;19.00;99.90;;;;;;6155006;23;20177;-83
2021/10/19 13:28:03;;;;;;;19.77;14.80;;;19.10;99.90;;;;;;6155278;23;20145;-83
2021/10/19 13:30:29;;;;;;;19.87;14.23;;;19.10;99.90;;;;;;6130637;23;20153;-83
2021/10/19 13:32:55;;;;;;;22.63;15.17;;;19.10;99.90;;;;;;6155154;23;20479;-83
2021/10/19 13:35:22;;;;;;;21.53;14.77;;;19.20;99.90;;;;;;6154717;23;20173;-83
2021/10/19 13:37:48;;;;;;;19.70;13.67;;;19.30;99.90;;;;;;6130555;23;20243;-83
2021/10/19 13:40:15;;;;;;;18.77;13.63;;;19.40;99.90;;;;;;6130428;23;20204;-85
2021/10/19 13:42:41;;;;;;;16.60;12.17;;;19.60;99.90;;;;;;6130269;23;20168;-85
2021/10/19 13:45:08;;;;;;;15.93;12.60;;;19.90;99.90;;;;;;6130496;23;20154;-84
2021/10/19 13:47:34;;;;;;;18.20;11.20;;;20.20;99.90;;;;;;6130603;23;20178;-85
2021/10/19 13:50:00;;;;;;;13.70;10.30;;;20.40;99.90;;;;;;6155042;23;20656;-84
2021/10/19 13:52:26;;;;;;;15.80;10.63;;;20.60;99.90;;;;;;6155197;23;20170;-84
2021/10/19 13:54:53;;;;;;;14.63;9.57;;;21.00;99.90;;;;;;6154166;23;20163;-85
2021/10/19 13:57:18;;;;;;;13.20;7.90;;;21.80;99.90;;;;;;6130420;23;20215;-84
2021/10/19 13:59:44;;;;;;;11.33;7.17;;;22.20;99.90;;;;;;6154696;23;20578;-84
2021/10/19 14:02:10;;;;;;;10.43;7.87;;;22.00;99.90;;;;;;6154908;23;20180;-83
2021/10/19 14:04:36;;;;;;;10.77;7.27;;;22.00;99.90;;;;;;6129550;23;20469;-83
2021/10/19 14:07:04;;;;;;;12.50;7.70;;;22.00;99.90;;;;;;6154516;23;20182;-83
2021/10/19 14:09:30;;;;;;;10.33;7.40;;;22.10;99.90;;;;;;6129676;23;20145;-83
2021/10/19 14:11:57;;;;;;;11.70;7.47;;;22.20;99.90;;;;;;6154268;23;20157;-84
2021/10/19 14:14:25;;;;;;;15.37;7.53;;;22.20;99.90;;;;;;6129852;23;20146;-83
2021/10/19 14:16:51;;;;;;;12.40;7.87;;;22.20;99.90;;;;;;6129410;23;20177;-83
2021/10/19 14:19:17;;;;;;;12.87;8.33;;;22.20;99.90;;;;;;6154749;23;20157;-84
2021/10/19 14:21:43;;;;;;;10.07;7.17;;;22.00;99.90;;;;;;6154607;23;20206;-86
2021/10/19 14:24:10;;;;;;;13.10;7.57;;;21.80;99.90;;;;;;6154422;23;20145;-83
2021/10/19 14:26:37;;;;;;;15.70;7.90;;;21.50;99.90;;;;;;6154442;23;20157;-84
2021/10/19 14:29:03;;;;;;;12.70;7.27;;;21.40;99.90;;;;;;6130081;23;20204;-84
2021/10/19 14:31:29;;;;;;;9.17;6.77;;;21.50;99.90;;;;;;6129957;23;20189;-84
2021/10/19 14:33:55;;;;;;;9.40;7.23;;;21.70;99.90;;;;;;6154654;23;20308;-85
2021/10/19 14:36:22;;;;;;;10.03;7.17;;;21.90;99.90;;;;;;6154736;23;20628;-85
2021/10/19 14:38:48;;;;;;;9.50;7.27;;;22.00;99.90;;;;;;6154384;23;20203;-83
2021/10/19 14:41:16;;;;;;;10.83;7.10;;;22.00;99.90;;;;;;6130118;23;20157;-83
2021/10/19 14:43:42;;;;;;;10.10;6.93;;;22.00;99.90;;;;;;6130089;23;20200;-84
2021/10/19 14:46:09;;;;;;;10.33;6.83;;;21.80;99.90;;;;;;6129830;23;20214;-84
2021/10/19 14:48:36;;;;;;;12.27;7.33;;;21.90;99.90;;;;;;6130251;23;20153;-84
2021/10/19 14:51:02;;;;;;;9.87;6.90;;;21.70;99.90;;;;;;6130044;23;20496;-84
2021/10/19 14:53:29;;;;;;;11.30;6.63;;;21.70;99.90;;;;;;6155481;23;20155;-84
2021/10/19 14:55:54;;;;;;;12.13;7.53;;;21.80;99.90;;;;;;6154431;23;20559;-84
2021/10/19 14:58:20;;;;;;;10.37;6.93;;;22.10;99.90;;;;;;6154680;23;20153;-84
2021/10/19 15:00:46;;;;;;;10.27;6.67;;;22.60;99.90;;;;;;6154622;23;20552;-84
2021/10/19 15:03:11;;;;;;;10.80;6.73;;;23.10;99.90;;;;;;6154494;23;20157;-84
2021/10/19 15:05:37;;;;;;;12.07;6.40;;;23.50;99.90;;;;;;6154788;23;20152;-85
2021/10/19 15:08:03;;;;;;;11.33;6.77;;;23.80;99.90;;;;;;6154306;23;20149;-85
2021/10/19 15:10:29;;;;;;;8.57;6.07;;;24.10;99.90;;;;;;6154655;23;20157;-84
2021/10/19 15:12:55;;;;;;;8.70;6.13;;;24.50;99.90;;;;;;6130986;23;20165;-84
2021/10/19 15:15:21;;;;;;;11.67;6.67;;;24.70;99.90;;;;;;6131532;23;20173;-84
2021/10/19 15:17:47;;;;;;;10.47;6.27;;;24.60;99.90;;;;;;6156336;23;20161;-84
2021/10/19 15:20:15;;;;;;;8.63;6.30;;;24.80;99.90;;;;;;6156198;23;20180;-83
2021/10/19 15:22:41;;;;;;;8.80;6.47;;;25.00;99.90;;;;;;6131185;23;20256;-84
2021/10/19 15:25:09;;;;;;;9.97;6.30;;;25.10;99.90;;;;;;6131630;23;20153;-83
2021/10/19 15:27:39;;;;;;;8.10;6.90;;;25.10;99.90;;;;;;6131562;23;20159;-84
2021/10/19 15:30:06;;;;;;;13.50;7.57;;;24.60;99.90;;;;;;6132058;23;20185;-83
2021/10/19 15:32:32;;;;;;;8.90;7.50;;;24.10;99.90;;;;;;6130823;23;20177;-83
2021/10/19 15:34:58;;;;;;;11.53;7.67;;;23.80;99.90;;;;;;6157052;23;20141;-82
2021/10/19 15:37:23;;;;;;;10.17;6.93;;;23.50;99.90;;;;;;6155714;23;20149;-83
2021/10/19 15:39:49;;;;;;;9.07;6.93;;;23.40;99.90;;;;;;6157363;23;20145;-83
2021/10/19 15:42:15;;;;;;;9.07;6.07;;;23.40;99.90;;;;;;6157336;23;20264;-83
2021/10/19 15:44:41;;;;;;;10.90;7.47;;;23.30;99.90;;;;;;6156082;23;20208;-83
2021/10/19 15:47:09;;;;;;;13.33;7.33;;;22.90;99.90;;;;;;6156033;23;20236;-83
2021/10/19 15:49:35;;;;;;;9.77;7.73;;;22.60;99.90;;;;;;6131176;23;20195;-84
2021/10/19 15:52:02;;;;;;;12.00;8.37;;;22.20;99.90;;;;;;6153959;23;20625;-83
2021/10/19 15:54:27;;;;;;;10.53;8.67;;;21.80;99.90;;;;;;6131084;23;20188;-84
2021/10/19 15:57:00;;;;;;;13.23;8.13;;;21.60;99.90;;;;;;6155072;23;20511;-84
2021/10/19 15:59:31;;;;;;;11.73;8.10;;;21.50;99.90;;;;;;6155269;23;20531;-84
2021/10/19 16:02:00;;;;;;;11.67;8.17;;;21.30;99.90;;;;;;6130229;23;20177;-84
2021/10/19 16:04:26;;;;;;;12.67;8.67;;;21.20;99.90;;;;;;6156038;23;20460;-84
2021/10/19 16:06:53;;;;;;;10.23;8.43;;;20.90;99.90;;;;;;6154779;23;20611;-83
2021/10/19 16:09:20;;;;;;;12.40;8.87;;;20.60;99.90;;;;;;6130126;23;20463;-84
2021/10/19 16:11:46;;;;;;;12.57;8.00;;;20.30;99.90;;;;;;6130541;23;20209;-85
2021/10/19 16:14:14;;;;;;;12.73;8.37;;;20.20;99.90;;;;;;6127536;23;20158;-83
2021/10/19 16:16:40;;;;;;;13.17;9.20;;;20.20;99.90;;;;;;6149082;23;20188;-85
2021/10/19 16:19:06;;;;;;;9.93;8.03;;;20.20;99.90;;;;;;6153852;23;20142;-85
2021/10/19 16:21:35;;;;;;;11.50;7.93;;;20.20;99.90;;;;;;6153227;23;20182;-85
2021/10/19 16:24:02;;;;;;;12.07;7.80;;;20.20;99.90;;;;;;6128774;23;20149;-84